< < Back
Terminal Aerodrome Forecast


Current Version              Previous Versions:   1  2  3  4  5  6  7  8  9  

Terminal Aerodrome Forecast

128
FTUS42 KGSP 232100 AAC
TAFHKY
TAF AMD
KHKY 232112Z 2321/2418 26007KT P6SM VCTS BKN040CB
      TEMPO 2321/2323 3SM TSRA OVC035CB
     FM232300 24004KT P6SM BKN045
     FM240300 00000KT P6SM BKN080
     FM241400 00000KT P6SM BKN070 PROB30 2415/2418 4SM TSRA
      BKN040CB=

Latest METAR

291
SAUS70 KWBC 240000 RRF
MTRHKY
METAR KHKY 232353Z AUTO 00000KT 10SM CLR 24/21 A2997 RMK AO2 SLP128
60131 T02440211 10328 20217 56020 TSNO


USA.gov is the U.S. government's official web portal to all federal, state and local government web resources and services.